Time;durP1;ratioP1;P1;durP2;ratioP2;P2;SDS_P1;SDS_P2;PMS_P1;PMS_P2;Temp;Humidity;BMP_temperature;BMP_pressure;BME280_temperature;BME280_humidity;BME280_pressure;Samples;Min_cycle;Max_cycle;Signal;HPM_P1;HPM_P2
2022/09/27 00:00:38;;;;;;;15.35;12.00;;;;;;;10.16;93.17;99112.67;1734874;82;21091;-82
2022/09/27 00:03:06;;;;;;;15.07;12.17;;;;;;;10.20;93.10;99110.75;1734580;82;20991;-82
2022/09/27 00:05:33;;;;;;;15.13;11.80;;;;;;;10.23;93.08;99110.09;1699689;84;21056;-84
2022/09/27 00:08:01;;;;;;;14.45;11.55;;;;;;;10.24;93.08;99102.61;1699231;84;21096;-82
2022/09/27 00:10:29;;;;;;;16.23;12.23;;;;;;;10.27;93.22;99092.46;1699316;84;20997;-82
2022/09/27 00:12:57;;;;;;;15.45;12.00;;;;;;;10.31;93.18;99089.19;1699344;84;21093;-82
2022/09/27 00:15:24;;;;;;;14.73;11.77;;;;;;;10.31;93.09;99088.75;1673583;84;21037;-82
2022/09/27 00:17:51;;;;;;;17.37;12.13;;;;;;;10.33;93.09;99088.65;1699496;84;21447;-82
2022/09/27 00:20:20;;;;;;;16.45;12.40;;;;;;;10.36;93.23;99084.55;1699248;84;21038;-82
2022/09/27 00:22:48;;;;;;;16.32;11.30;;;;;;;10.39;93.35;99085.23;1699502;84;21060;-82
2022/09/27 00:25:16;;;;;;;19.13;12.50;;;;;;;10.43;93.43;99080.66;1699237;84;21144;-82
2022/09/27 00:27:43;;;;;;;15.13;11.40;;;;;;;10.46;93.20;99072.61;1699413;84;21476;-82
2022/09/27 00:30:11;;;;;;;17.73;12.33;;;;;;;10.47;93.10;99068.61;1699321;84;21049;-82
2022/09/27 00:32:39;;;;;;;16.70;12.30;;;;;;;10.48;93.06;99069.45;1699470;84;21565;-82
2022/09/27 00:35:07;;;;;;;15.93;11.57;;;;;;;10.49;92.96;99061.48;1699185;84;21104;-83
2022/09/27 00:37:34;;;;;;;14.30;10.82;;;;;;;10.50;93.02;99057.08;1699575;84;21828;-82
2022/09/27 00:40:02;;;;;;;13.77;11.93;;;;;;;10.53;93.21;99056.06;1683215;84;21013;-82
2022/09/27 00:42:29;;;;;;;13.45;10.78;;;;;;;10.55;93.22;99056.35;1695920;84;21028;-83
2022/09/27 00:45:07;;;;;;;15.00;11.65;;;;;;;10.58;93.11;99055.33;1699196;84;21076;-82
2022/09/27 00:47:49;;;;;;;13.72;10.60;;;;;;;10.60;93.13;99042.99;1699587;84;21562;-82
2022/09/27 00:50:33;;;;;;;16.13;11.23;;;;;;;10.61;93.10;99036.33;1674886;84;21541;-82
2022/09/27 00:53:21;;;;;;;14.40;10.80;;;;;;;10.63;93.11;99030.55;1680108;84;21065;-82
2022/09/27 00:55:53;;;;;;;13.93;10.90;;;;;;;10.65;93.12;99020.83;1694496;84;21041;-85
2022/09/27 00:58:25;;;;;;;12.68;10.35;;;;;;;10.66;93.08;99010.70;1709738;83;21021;-82
2022/09/27 01:00:57;;;;;;;14.13;9.95;;;;;;;10.69;92.92;99003.13;1711663;83;21068;-87
2022/09/27 01:03:48;;;;;;;14.43;9.95;;;;;;;10.69;92.89;99000.04;1712023;83;21091;-82
2022/09/27 01:06:17;;;;;;;12.58;9.95;;;;;;;10.71;92.83;98992.09;1711060;83;21001;-85
2022/09/27 01:08:44;;;;;;;12.98;9.10;;;;;;;10.73;92.92;98992.86;1711934;83;21025;-82
2022/09/27 01:11:44;;;;;;;12.15;8.45;;;;;;;10.73;92.51;98982.38;1711663;83;21020;-82
2022/09/27 01:14:39;;;;;;;12.18;9.35;;;;;;;10.69;92.13;98984.31;1711734;83;21094;-82
2022/09/27 01:17:37;;;;;;;9.80;8.53;;;;;;;10.62;91.92;98982.18;1711706;83;21588;-82
2022/09/27 01:20:25;;;;;;;12.70;8.93;;;;;;;10.57;92.29;98976.37;1709339;83;21056;-82
2022/09/27 01:23:18;;;;;;;11.10;8.20;;;;;;;10.57;92.60;98970.66;1680857;83;21056;-84
2022/09/27 01:26:16;;;;;;;11.28;8.00;;;;;;;10.57;92.54;98968.51;1688756;83;21063;-83
2022/09/27 01:29:04;;;;;;;10.75;8.30;;;;;;;10.58;92.60;98961.02;1706797;83;21032;-83
2022/09/27 01:31:37;;;;;;;10.78;8.00;;;;;;;10.57;92.40;98953.62;1701360;83;21158;-82
2022/09/27 01:34:29;;;;;;;11.87;7.60;;;;;;;10.51;92.23;98956.62;1690846;83;21032;-84
2022/09/27 01:37:12;;;;;;;10.13;7.15;;;;;;;10.46;92.04;98950.33;1710133;83;21040;-82
2022/09/27 01:39:59;;;;;;;8.95;6.85;;;;;;;10.41;92.03;98952.38;1695614;83;21036;-83
2022/09/27 01:42:49;;;;;;;8.20;6.37;;;;;;;10.40;91.98;98959.03;1691248;83;21047;-82
2022/09/27 01:45:22;;;;;;;10.70;7.60;;;;;;;10.37;91.83;98964.45;1711726;83;21139;-84
2022/09/27 01:48:14;;;;;;;10.25;7.55;;;;;;;10.37;91.95;98971.00;1709530;83;21051;-90
2022/09/27 01:50:54;;;;;;;9.38;7.15;;;;;;;10.36;91.90;98972.75;1700276;83;21040;-92
2022/09/27 01:53:32;;;;;;;8.83;7.23;;;;;;;10.36;92.08;98966.20;1693887;82;21040;-83
2022/09/27 01:56:12;;;;;;;10.43;7.65;;;;;;;10.35;91.99;98958.46;1687267;83;21506;-86
2022/09/27 01:58:49;;;;;;;9.28;7.22;;;;;;;10.34;91.96;98953.70;1706421;83;27067;-80
2022/09/27 02:01:19;;;;;;;10.77;7.80;;;;;;;10.34;91.99;98947.62;1675089;83;21047;-85
2022/09/27 02:03:51;;;;;;;10.00;7.72;;;;;;;10.32;91.86;98946.86;1711964;83;21076;-88
2022/09/27 02:06:25;;;;;;;9.03;7.45;;;;;;;10.30;91.77;98942.17;1673304;83;21589;-86
2022/09/27 02:09:08;;;;;;;9.65;7.05;;;;;;;10.29;91.88;98941.80;1711077;83;21295;-84
2022/09/27 02:11:47;;;;;;;8.57;6.77;;;;;;;10.27;91.77;98944.03;1701804;83;21329;-92
2022/09/27 02:14:34;;;;;;;10.58;7.45;;;;;;;10.25;91.75;98935.85;1691001;83;21026;-85
2022/09/27 02:17:32;;;;;;;9.03;6.45;;;;;;;10.25;91.82;98939.78;1686833;83;21051;-89
2022/09/27 02:20:24;;;;;;;9.33;7.10;;;;;;;10.22;91.72;98941.27;1681419;83;21088;-87
2022/09/27 02:23:19;;;;;;;11.85;6.62;;;;;;;10.18;91.56;98930.62;1682224;83;21036;-81
2022/09/27 02:26:00;;;;;;;12.17;7.23;;;;;;;10.13;91.52;98927.42;1682826;83;21963;-82
2022/09/27 02:28:36;;;;;;;9.37;7.00;;;;;;;10.07;91.47;98924.70;1682865;83;21024;-81
2022/09/27 02:31:04;;;;;;;8.63;7.00;;;;;;;10.05;91.81;98930.48;1699363;83;21517;-81
2022/09/27 02:33:41;;;;;;;10.13;6.90;;;;;;;10.08;92.07;98925.54;1711867;82;21560;-80
2022/09/27 02:36:10;;;;;;;9.97;7.43;;;;;;;10.07;92.10;98913.39;1711579;83;21061;-81
2022/09/27 02:38:37;;;;;;;9.43;7.20;;;;;;;10.05;91.94;98914.78;1711487;83;21066;-81
2022/09/27 02:41:14;;;;;;;10.40;7.13;;;;;;;10.04;92.03;98919.65;1686165;83;21042;-81
2022/09/27 02:43:43;;;;;;;10.13;6.72;;;;;;;10.02;92.00;98916.27;1711618;83;20996;-81
2022/09/27 02:46:42;;;;;;;10.80;7.65;;;;;;;10.01;92.14;98912.81;1686342;83;21022;-88
2022/09/27 02:49:23;;;;;;;8.00;6.40;;;;;;;10.00;92.15;98907.22;1711975;83;21020;-90
2022/09/27 02:52:37;;;;;;;10.30;7.43;;;;;;;9.97;92.13;98906.05;1709833;82;21103;-80
2022/09/27 02:55:24;;;;;;;10.43;7.53;;;;;;;9.97;92.25;98902.60;1711595;83;21023;-81
2022/09/27 02:58:23;;;;;;;10.17;7.90;;;;;;;9.94;92.13;98897.55;1633986;86;21038;-85
2022/09/27 03:01:12;;;;;;;10.37;7.83;;;;;;;9.92;92.31;98889.80;1676818;85;21023;-91
2022/09/27 03:03:59;;;;;;;12.07;8.20;;;;;;;9.88;92.31;98885.66;1680644;84;21570;-81
2022/09/27 03:06:27;;;;;;;11.10;7.87;;;;;;;9.85;92.27;98885.84;1683625;84;21089;-81
2022/09/27 03:08:55;;;;;;;11.80;8.13;;;;;;;9.81;92.42;98885.19;1675068;85;21031;-87
2022/09/27 03:11:23;;;;;;;10.27;7.93;;;;;;;9.81;92.58;98886.50;1700132;84;20979;-80
2022/09/27 03:13:52;;;;;;;12.63;7.97;;;;;;;9.80;92.69;98886.10;1674850;85;21610;-80
2022/09/27 03:16:19;;;;;;;9.47;7.97;;;;;;;9.80;92.85;98887.41;1699879;84;21018;-81
2022/09/27 03:18:48;;;;;;;10.35;7.83;;;;;;;9.82;92.97;98888.64;1674750;84;21067;-80
2022/09/27 03:21:19;;;;;;;10.30;8.07;;;;;;;9.82;92.96;98890.79;1695830;84;21030;-80
2022/09/27 03:23:46;;;;;;;11.13;8.40;;;;;;;9.85;93.10;98890.24;1680665;83;21521;-80
2022/09/27 03:26:13;;;;;;;13.32;8.73;;;;;;;9.85;93.03;98885.84;1680326;83;21346;-87
2022/09/27 03:28:40;;;;;;;11.78;8.85;;;;;;;9.83;92.99;98882.00;1673090;83;21050;-81
2022/09/27 03:31:07;;;;;;;10.93;8.57;;;;;;;9.85;93.01;98881.09;1688343;84;21765;-81
2022/09/27 03:33:42;;;;;;;12.23;9.15;;;;;;;9.84;93.03;98869.78;1673450;85;21106;-80
2022/09/27 03:36:11;;;;;;;11.83;9.05;;;;;;;9.85;93.07;98867.53;1699984;84;20963;-80
2022/09/27 03:38:38;;;;;;;11.50;8.65;;;;;;;9.87;93.27;98860.91;1680423;83;21082;-80
2022/09/27 03:41:06;;;;;;;12.07;8.78;;;;;;;9.86;93.06;98858.73;1662781;85;21039;-80
2022/09/27 03:43:33;;;;;;;14.23;8.67;;;;;;;9.87;93.21;98852.59;1672853;83;21533;-81
2022/09/27 03:46:01;;;;;;;11.30;8.70;;;;;;;9.88;93.07;98852.95;1680100;83;21314;-81
2022/09/27 03:48:30;;;;;;;11.63;8.48;;;;;;;9.86;92.96;98849.58;1680530;85;21032;-81
2022/09/27 03:50:57;;;;;;;13.07;8.83;;;;;;;9.87;93.00;98847.83;1680335;85;21066;-81
2022/09/27 03:53:24;;;;;;;11.63;9.13;;;;;;;9.86;93.03;98850.87;1680718;83;21031;-80
2022/09/27 03:55:51;;;;;;;11.97;9.50;;;;;;;9.86;92.98;98843.03;1680178;85;21264;-80
2022/09/27 03:58:18;;;;;;;10.82;8.63;;;;;;;9.84;92.97;98839.69;1700539;82;21019;-81
2022/09/27 04:00:47;;;;;;;11.33;9.07;;;;;;;9.84;93.08;98842.30;1728956;83;21015;-82
2022/09/27 04:03:14;;;;;;;11.75;9.30;;;;;;;9.86;93.20;98844.81;1715881;83;21030;-85
2022/09/27 04:05:45;;;;;;;12.68;9.33;;;;;;;9.88;93.42;98839.03;1701294;83;21056;-81
2022/09/27 04:08:14;;;;;;;12.50;9.73;;;;;;;9.89;93.44;98843.32;1723730;83;21144;-88
2022/09/27 04:10:42;;;;;;;13.25;9.48;;;;;;;9.94;93.75;98832.12;1698901;83;21072;-88
2022/09/27 04:13:09;;;;;;;12.93;8.93;;;;;;;9.98;93.82;98831.02;1723875;83;20986;-80
2022/09/27 04:15:38;;;;;;;13.50;10.10;;;;;;;10.00;93.63;98828.69;1723251;83;21064;-79
2022/09/27 04:18:23;;;;;;;14.63;10.45;;;;;;;10.02;93.55;98827.27;1724167;83;21005;-79
2022/09/27 04:21:08;;;;;;;13.28;10.28;;;;;;;10.04;93.55;98828.86;1723941;83;21728;-79
2022/09/27 04:23:37;;;;;;;14.60;10.60;;;;;;;10.04;93.45;98821.48;1697552;83;21058;-79
2022/09/27 04:26:04;;;;;;;12.80;10.53;;;;;;;10.04;93.37;98821.48;1721394;83;22113;-80
2022/09/27 04:28:52;;;;;;;13.72;11.20;;;;;;;10.01;93.28;98808.11;1713614;83;21052;-79
2022/09/27 04:31:20;;;;;;;16.75;14.28;;;;;;;10.03;93.48;98811.48;1714234;83;21012;-79
2022/09/27 04:33:55;;;;;;;15.80;11.85;;;;;;;10.04;93.41;98802.69;1700976;83;21974;-80
2022/09/27 04:36:26;;;;;;;14.97;11.20;;;;;;;10.03;93.37;98796.22;1723573;83;21012;-80
2022/09/27 04:39:09;;;;;;;13.72;10.60;;;;;;;10.03;93.50;98798.84;1724118;83;21020;-79
2022/09/27 04:41:39;;;;;;;12.18;10.40;;;;;;;10.05;93.52;98792.58;1723936;83;21084;-80
2022/09/27 04:44:06;;;;;;;18.27;11.57;;;;;;;10.06;93.50;98790.83;1724199;83;21040;-80
2022/09/27 04:46:34;;;;;;;12.93;10.43;;;;;;;10.04;93.25;98790.91;1724005;83;22020;-79
2022/09/27 04:49:02;;;;;;;15.40;11.22;;;;;;;10.05;93.52;98783.89;1724139;83;21016;-79
2022/09/27 04:51:30;;;;;;;15.40;11.33;;;;;;;10.05;93.53;98777.34;1724025;83;21072;-82
2022/09/27 04:53:57;;;;;;;14.15;11.28;;;;;;;10.07;93.54;98775.48;1724328;83;21041;-79
2022/09/27 04:56:26;;;;;;;13.48;11.05;;;;;;;10.07;93.32;98777.27;1722715;83;21501;-79
2022/09/27 04:58:54;;;;;;;15.93;11.05;;;;;;;10.06;93.35;98777.73;1722616;83;21278;-85
2022/09/27 05:01:21;;;;;;;14.17;10.50;;;;;;;10.06;93.47;98771.20;1721250;83;21415;-80
2022/09/27 05:04:07;;;;;;;14.38;10.58;;;;;;;10.05;93.28;98770.33;1721208;83;21071;-79
2022/09/27 05:06:37;;;;;;;13.68;10.88;;;;;;;10.04;93.29;98771.75;1721497;83;21040;-79
2022/09/27 05:09:09;;;;;;;14.17;10.73;;;;;;;10.02;93.22;98774.92;1719098;83;21478;-79
2022/09/27 05:11:44;;;;;;;15.55;10.40;;;;;;;9.99;93.22;98775.94;1720557;83;21506;-84
2022/09/27 05:14:17;;;;;;;13.32;10.43;;;;;;;9.98;93.29;98775.58;1721004;83;21028;-81
2022/09/27 05:16:54;;;;;;;13.63;10.77;;;;;;;9.98;93.55;98776.05;1720500;83;21024;-89
2022/09/27 05:19:29;;;;;;;13.43;9.93;;;;;;;10.01;93.67;98764.09;1721132;83;21311;-80
2022/09/27 05:22:14;;;;;;;15.53;11.00;;;;;;;10.04;93.87;98765.20;1720848;83;21017;-79
2022/09/27 05:24:42;;;;;;;13.47;10.30;;;;;;;10.06;93.82;98767.27;1721110;83;21124;-79
2022/09/27 05:27:15;;;;;;;16.67;10.65;;;;;;;10.08;93.90;98769.30;1721465;83;21069;-79
2022/09/27 05:29:41;;;;;;;11.37;9.57;;;;;;;10.11;93.83;98767.80;1700980;83;21032;-80
2022/09/27 05:32:11;;;;;;;12.97;10.33;;;;;;;10.13;93.69;98767.25;1701409;83;21037;-79
2022/09/27 05:34:38;;;;;;;11.67;9.43;;;;;;;10.14;93.62;98766.33;1721122;82;21533;-80
2022/09/27 05:37:05;;;;;;;11.23;9.07;;;;;;;10.15;93.58;98762.77;1721337;83;21223;-79
2022/09/27 05:39:34;;;;;;;11.73;8.93;;;;;;;10.16;93.70;98765.75;1720737;83;21036;-79
2022/09/27 05:42:03;;;;;;;11.73;9.30;;;;;;;10.21;93.90;98759.77;1721135;82;20977;-79
2022/09/27 05:44:30;;;;;;;9.78;8.05;;;;;;;10.24;93.90;98759.58;1721373;83;21064;-80
2022/09/27 05:47:03;;;;;;;11.43;8.53;;;;;;;10.30;93.95;98755.77;1721105;83;21013;-79
2022/09/27 05:49:32;;;;;;;9.43;7.97;;;;;;;10.35;94.01;98754.18;1721118;83;21223;-79
2022/09/27 05:52:00;;;;;;;10.28;8.48;;;;;;;10.39;93.90;98759.14;1721047;83;21510;-79
2022/09/27 05:54:28;;;;;;;12.75;8.38;;;;;;;10.43;93.89;98752.76;1721445;83;21013;-80
2022/09/27 05:56:58;;;;;;;11.97;8.38;;;;;;;10.48;94.03;98750.70;1721056;83;21526;-80
2022/09/27 05:59:36;;;;;;;10.60;7.05;;;;;;;10.57;93.93;98759.75;1721815;83;21506;-80
2022/09/27 06:02:22;;;;;;;10.85;6.95;;;;;;;10.63;93.79;98754.59;1724229;83;21720;-80
2022/09/27 06:05:08;;;;;;;8.88;6.40;;;;;;;10.69;93.70;98760.75;1724159;83;21016;-80
2022/09/27 06:07:35;;;;;;;7.90;5.92;;;;;;;10.74;93.55;98756.06;1724550;83;21005;-90
2022/09/27 06:10:05;;;;;;;9.30;6.30;;;;;;;10.77;93.31;98757.17;1724267;83;21035;-80
2022/09/27 06:12:33;;;;;;;7.55;5.62;;;;;;;10.82;93.28;98758.20;1724142;83;21024;-80
2022/09/27 06:15:01;;;;;;;6.20;5.12;;;;;;;10.85;93.12;98752.75;1699233;83;21160;-80
2022/09/27 06:17:33;;;;;;;7.22;5.67;;;;;;;10.87;93.13;98746.47;1723243;83;21028;-81
2022/09/27 06:20:04;;;;;;;7.28;5.60;;;;;;;10.91;93.21;98758.91;1724368;83;21009;-79
2022/09/27 06:22:31;;;;;;;7.35;5.80;;;;;;;10.96;93.23;98748.97;1724251;83;21005;-80
2022/09/27 06:25:00;;;;;;;6.25;4.78;;;;;;;11.01;93.28;98750.82;1710098;83;21020;-79
2022/09/27 06:27:31;;;;;;;5.83;4.60;;;;;;;11.05;93.28;98750.98;1701009;83;21529;-79
2022/09/27 06:29:59;;;;;;;7.37;4.75;;;;;;;11.12;93.17;98747.50;1697051;83;21110;-79
2022/09/27 06:32:32;;;;;;;7.50;4.50;;;;;;;11.17;93.37;98741.48;1693042;82;21024;-82
2022/09/27 06:35:04;;;;;;;8.23;4.55;;;;;;;11.20;93.13;98737.83;1695308;83;21051;-80
2022/09/27 06:37:31;;;;;;;6.12;4.80;;;;;;;11.23;93.17;98745.48;1721463;82;21510;-80
2022/09/27 06:39:58;;;;;;;5.72;4.72;;;;;;;11.26;93.34;98742.18;1700599;82;21588;-87
2022/09/27 06:42:44;;;;;;;6.42;4.67;;;;;;;11.32;93.25;98744.88;1724381;82;20908;-80
2022/09/27 06:45:19;;;;;;;6.50;4.60;;;;;;;11.36;93.23;98747.64;1704809;82;21038;-78
2022/09/27 06:47:51;;;;;;;6.67;4.85;;;;;;;11.39;93.24;98745.67;1689117;82;21000;-78
2022/09/27 06:50:35;;;;;;;6.75;5.47;;;;;;;11.44;93.14;98745.34;1713477;82;21584;-79
2022/09/27 06:53:07;;;;;;;6.05;5.17;;;;;;;11.47;93.20;98745.14;1717680;82;21462;-80
2022/09/27 06:55:34;;;;;;;5.40;4.80;;;;;;;11.49;93.14;98744.57;1705734;82;21032;-78
2022/09/27 07:00:52;;;;;;;6.72;5.12;;;;;;;11.59;93.16;98742.19;1719748;82;21452;-80
2022/09/27 07:03:30;;;;;;;6.05;4.97;;;;;;;11.64;93.21;98737.91;1701534;82;21079;-77
2022/09/27 07:06:01;;;;;;;5.78;4.87;;;;;;;11.68;93.02;98737.61;1715902;82;21120;-77
2022/09/27 07:08:42;;;;;;;7.10;5.08;;;;;;;11.70;92.80;98733.11;1708175;82;21480;-82
2022/09/27 07:11:10;;;;;;;7.08;5.03;;;;;;;11.71;92.75;98741.34;1717398;82;21528;-80
2022/09/27 07:13:41;;;;;;;7.30;5.00;;;;;;;11.73;92.76;98746.02;1712373;82;21020;-80
2022/09/27 07:16:06;;;;;;;8.43;5.03;;;;;;;11.77;92.73;98740.08;1700135;82;21046;-78
2022/09/27 07:18:33;;;;;;;5.75;4.75;;;;;;;11.80;92.54;98746.43;1714942;82;21125;-78
2022/09/27 07:21:00;;;;;;;6.03;4.65;;;;;;;11.83;92.59;98748.39;1706336;82;21461;-78
2022/09/27 07:23:28;;;;;;;5.78;4.75;;;;;;;11.87;92.54;98744.27;1700764;82;21446;-78
2022/09/27 07:25:56;;;;;;;8.83;5.62;;;;;;;11.90;92.51;98744.89;1711523;82;21477;-78
2022/09/27 07:28:23;;;;;;;7.33;5.10;;;;;;;11.95;92.48;98742.80;1719818;81;21039;-77
2022/09/27 07:30:55;;;;;;;6.20;5.03;;;;;;;12.00;92.44;98754.30;1722397;82;21966;-79
2022/09/27 07:33:23;;;;;;;7.10;5.33;;;;;;;12.02;92.40;98748.45;1709719;82;21480;-79
2022/09/27 07:35:50;;;;;;;7.72;5.08;;;;;;;12.05;92.26;98753.04;1713339;82;21364;-86
2022/09/27 07:38:17;;;;;;;6.92;6.08;;;;;;;12.10;92.23;98759.74;1709649;81;21031;-81
2022/09/27 07:40:47;;;;;;;7.30;6.10;;;;;;;12.16;92.42;98767.19;1715147;82;21456;-82
2022/09/27 07:43:14;;;;;;;;;;;;;;;12.23;92.35;98758.78;1729843;81;21109;-81
2022/09/27 07:45:43;;;;;;;7.50;5.75;;;;;;;12.28;92.06;98761.93;1713102;81;20176;-87
2022/09/27 07:48:15;;;;;;;7.40;6.00;;;;;;;12.33;92.00;98759.44;1710662;82;21103;-86
2022/09/27 07:50:51;;;;;;;6.03;5.40;;;;;;;12.36;91.93;98764.03;1682223;82;21070;-80
2022/09/27 07:53:37;;;;;;;7.92;5.03;;;;;;;12.42;91.85;98766.70;1710809;81;21055;-81
2022/09/27 07:56:08;;;;;;;7.67;4.72;;;;;;;12.45;91.72;98764.68;1713413;82;21370;-84
2022/09/27 07:58:36;;;;;;;6.17;5.03;;;;;;;12.47;91.63;98769.36;1720249;82;21560;-80
2022/09/27 08:01:06;;;;;;;6.62;5.25;;;;;;;12.49;91.54;98771.38;1716092;82;21027;-81
2022/09/27 08:03:33;;;;;;;6.17;4.20;;;;;;;12.52;91.66;98766.87;1717653;82;21396;-80
2022/09/27 08:06:03;;;;;;;6.03;5.17;;;;;;;12.53;91.65;98765.45;1714356;82;21075;-82
2022/09/27 08:08:30;;;;;;;5.72;5.05;;;;;;;12.55;91.43;98760.08;1712524;82;22398;-81
2022/09/27 08:10:59;;;;;;;6.20;5.20;;;;;;;12.55;91.51;98762.22;1712885;82;21600;-80
2022/09/27 08:13:26;;;;;;;7.78;5.25;;;;;;;12.56;91.67;98763.92;1713197;82;21032;-80
2022/09/27 08:15:53;;;;;;;6.30;5.22;;;;;;;12.58;91.61;98771.23;1711176;82;21039;-81
2022/09/27 08:18:23;;;;;;;6.80;5.33;;;;;;;12.56;91.51;98769.18;1714050;82;21016;-80
2022/09/27 08:21:01;;;;;;;7.35;5.90;;;;;;;12.52;91.23;98767.70;1710620;81;21378;-79
2022/09/27 08:23:30;;;;;;;7.50;5.83;;;;;;;12.52;91.51;98772.13;1708127;82;21042;-86
2022/09/27 08:26:14;;;;;;;6.62;5.60;;;;;;;12.53;91.69;98769.41;1711102;81;21098;-79
2022/09/27 08:28:58;;;;;;;9.58;5.92;;;;;;;12.52;91.86;98774.27;1714610;82;21099;-78
2022/09/27 08:31:27;;;;;;;7.87;6.33;;;;;;;12.52;92.02;98769.02;1722397;82;21039;-77
2022/09/27 08:33:56;;;;;;;6.55;5.85;;;;;;;12.54;92.19;98778.12;1717583;82;21229;-76
2022/09/27 08:36:24;;;;;;;8.23;6.17;;;;;;;12.52;92.19;98776.90;1708293;82;21461;-76
2022/09/27 08:38:51;;;;;;;8.70;5.95;;;;;;;12.49;92.19;98775.33;1700050;82;21497;-79
2022/09/27 08:41:38;;;;;;;6.85;5.30;;;;;;;12.48;92.42;98774.97;1710187;82;21031;-77
2022/09/27 08:44:38;;;;;;;7.55;5.72;;;;;;;12.48;92.66;98777.59;1718085;82;21460;-77
2022/09/27 08:47:30;;;;;;;7.37;5.87;;;;;;;12.51;92.88;98775.23;1700244;82;21593;-76
2022/09/27 08:50:35;;;;;;;8.08;6.25;;;;;;;12.56;93.28;98772.29;1708625;82;21498;-78
2022/09/27 08:53:20;;;;;;;7.75;6.28;;;;;;;12.57;93.22;98779.21;1712545;82;21039;-80
2022/09/27 08:55:52;;;;;;;9.63;6.72;;;;;;;12.55;93.11;98775.36;1701027;82;21043;-85
2022/09/27 08:58:47;;;;;;;8.90;7.33;;;;;;;12.55;93.21;98777.99;1708329;82;21035;-80
2022/09/27 09:01:17;;;;;;;7.92;6.65;;;;;;;12.54;93.24;98778.95;1717188;82;21110;-79
2022/09/27 09:03:56;;;;;;;8.60;7.17;;;;;;;12.50;93.01;98778.82;1709718;82;20963;-78
2022/09/27 09:06:32;;;;;;;8.75;7.12;;;;;;;12.48;93.27;98779.39;1715190;82;21035;-81
2022/09/27 09:09:29;;;;;;;9.10;6.92;;;;;;;12.51;93.59;98779.17;1689920;81;21019;-81
2022/09/27 09:12:47;;;;;;;9.53;7.10;;;;;;;12.53;93.73;98777.77;1717284;81;21023;-86
2022/09/27 09:15:27;;;;;;;10.72;7.35;;;;;;;12.53;94.00;98770.72;1709486;82;21517;-81
2022/09/27 09:18:28;;;;;;;9.70;6.97;;;;;;;12.53;93.59;98773.83;1701222;82;28746;-77
2022/09/27 09:21:39;;;;;;;9.30;7.40;;;;;;;12.52;94.01;98763.76;1713198;82;21047;-75
2022/09/27 09:24:32;;;;;;;9.18;6.67;;;;;;;12.54;94.07;98764.98;1681265;82;21309;-79
2022/09/27 09:27:16;;;;;;;11.30;7.75;;;;;;;12.54;93.95;98767.13;1712831;82;21533;-76
2022/09/27 09:30:04;;;;;;;8.88;6.70;;;;;;;12.50;93.76;98761.26;1718626;82;21955;-76
2022/09/27 09:32:58;;;;;;;10.83;7.00;;;;;;;12.49;93.96;98764.81;1701097;82;21072;-78
2022/09/27 09:35:33;;;;;;;8.90;6.97;;;;;;;12.48;93.76;98755.74;1701379;82;21035;-82
2022/09/27 09:38:07;;;;;;;8.58;6.78;;;;;;;12.46;94.05;98754.52;1711002;82;21035;-79
2022/09/27 09:40:48;;;;;;;8.60;6.80;;;;;;;12.48;93.78;98750.01;1706015;82;21126;-80
2022/09/27 09:43:26;;;;;;;8.38;6.85;;;;;;;12.48;93.82;98737.34;1709794;82;21119;-76
2022/09/27 09:46:03;;;;;;;11.68;7.12;;;;;;;12.50;94.25;98733.66;1718364;82;21043;-84
2022/09/27 09:48:42;;;;;;;8.00;6.50;;;;;;;12.54;94.17;98729.50;1720078;82;21473;-85
2022/09/27 09:51:16;;;;;;;7.75;6.25;;;;;;;12.55;94.19;98726.74;1721962;82;21867;-84
2022/09/27 09:53:57;;;;;;;7.95;6.47;;;;;;;12.60;94.43;98723.80;1706828;82;21293;-84
2022/09/27 09:56:37;;;;;;;7.53;5.92;;;;;;;12.63;94.34;98727.52;1714265;82;21168;-80
2022/09/27 09:59:15;;;;;;;9.15;6.80;;;;;;;12.65;94.20;98728.25;1702665;82;21098;-79
2022/09/27 10:01:47;;;;;;;7.75;6.03;;;;;;;12.66;94.05;98732.06;1706029;82;21348;-79
2022/09/27 10:04:26;;;;;;;8.18;6.50;;;;;;;12.70;94.23;98732.70;1705693;82;21090;-79
2022/09/27 10:06:57;;;;;;;6.67;5.95;;;;;;;12.75;93.98;98727.09;1708713;82;21038;-79
2022/09/27 10:09:27;;;;;;;7.75;5.85;;;;;;;12.77;94.11;98726.52;1694859;82;21125;-79
2022/09/27 10:11:56;;;;;;;7.42;5.97;;;;;;;12.84;94.41;98725.13;1694456;82;21078;-79
2022/09/27 10:14:27;;;;;;;6.20;5.60;;;;;;;12.89;94.28;98726.95;1704671;82;21066;-79
2022/09/27 10:17:00;;;;;;;7.45;5.97;;;;;;;12.97;94.46;98723.28;1716117;82;21020;-77
2022/09/27 10:19:30;;;;;;;8.30;6.10;;;;;;;13.06;94.63;98720.45;1705939;82;21103;-77
2022/09/27 10:22:25;;;;;;;8.30;6.08;;;;;;;13.14;94.50;98720.72;1717079;82;21101;-78
2022/09/27 10:25:02;;;;;;;7.62;5.15;;;;;;;13.19;94.42;98718.59;1701581;82;21031;-78
2022/09/27 10:27:50;;;;;;;7.25;5.47;;;;;;;13.23;94.42;98719.19;1709406;82;21083;-77
2022/09/27 10:30:34;;;;;;;6.87;5.12;;;;;;;13.26;93.92;98721.14;1704031;82;21056;-77
2022/09/27 10:33:17;;;;;;;10.15;5.40;;;;;;;13.24;93.62;98712.48;1711832;82;21031;-82
2022/09/27 10:35:50;;;;;;;7.00;5.33;;;;;;;13.25;93.54;98709.40;1720546;82;21139;-79
2022/09/27 10:38:26;;;;;;;7.72;5.45;;;;;;;13.26;93.44;98709.78;1709857;82;20920;-78
2022/09/27 10:41:00;;;;;;;8.23;6.40;;;;;;;13.29;93.94;98710.38;1719655;82;21070;-77
2022/09/27 10:43:32;;;;;;;8.68;5.65;;;;;;;13.33;93.67;98713.16;1697453;82;21476;-76
2022/09/27 10:46:32;;;;;;;7.65;5.37;;;;;;;13.31;93.37;98712.42;1699308;82;21320;-76
2022/09/27 10:49:19;;;;;;;;;;;;;;;13.37;93.90;98710.64;1722940;82;21207;-77
2022/09/27 10:51:52;;;;;;;6.80;5.50;;;;;;;13.41;93.28;98709.09;1703207;82;20426;-76
2022/09/27 10:54:29;;;;;;;7.10;4.65;;;;;;;13.42;93.24;98705.53;1722036;82;21086;-77
2022/09/27 10:57:15;;;;;;;5.92;4.65;;;;;;;13.44;93.47;98700.96;1708907;82;21601;-79
2022/09/27 10:59:46;;;;;;;8.28;5.30;;;;;;;13.47;93.27;98708.17;1717591;82;21022;-77
2022/09/27 11:02:27;;;;;;;7.10;4.92;;;;;;;13.46;92.88;98693.80;1708802;82;21127;-80
2022/09/27 11:05:16;;;;;;;6.72;5.03;;;;;;;13.47;93.02;98692.38;1710907;82;21007;-76
2022/09/27 11:07:55;;;;;;;6.40;4.80;;;;;;;13.48;92.99;98684.83;1721228;82;21078;-76
2022/09/27 11:10:30;;;;;;;8.30;5.35;;;;;;;13.50;93.11;98692.14;1712263;82;21039;-76
2022/09/27 11:13:16;;;;;;;7.60;5.78;;;;;;;13.52;93.06;98691.55;1712356;82;21210;-76
2022/09/27 11:16:21;;;;;;;6.67;5.00;;;;;;;13.52;92.80;98699.45;1710407;82;21736;-76
2022/09/27 11:19:46;;;;;;;7.20;5.78;;;;;;;13.52;92.64;98692.88;1713726;82;21083;-76
2022/09/27 11:23:03;;;;;;;7.90;6.10;;;;;;;13.56;92.83;98690.35;1703903;82;21046;-76
2022/09/27 11:25:51;;;;;;;6.83;5.42;;;;;;;13.58;92.44;98685.81;1703408;82;21037;-76
2022/09/27 11:28:44;;;;;;;6.67;4.87;;;;;;;13.70;92.77;98695.88;1703066;82;21087;-83
2022/09/27 11:31:37;;;;;;;6.55;4.97;;;;;;;13.80;92.61;98686.77;1689494;83;21156;-85
2022/09/27 11:34:31;;;;;;;7.45;5.28;;;;;;;14.02;93.30;98679.34;1689751;84;21102;-81
2022/09/27 11:37:22;;;;;;;9.03;5.22;;;;;;;14.29;93.38;98679.80;1710024;82;21051;-79
2022/09/27 11:40:01;;;;;;;6.42;4.72;;;;;;;14.55;93.21;98662.88;1713081;82;21039;-80
2022/09/27 11:43:10;;;;;;;7.00;4.67;;;;;;;14.93;93.16;98661.06;1721773;82;21688;-75
2022/09/27 11:46:23;;;;;;;4.97;4.40;;;;;;;15.72;91.92;98652.22;1719215;82;21410;-78
2022/09/27 11:49:07;;;;;;;5.10;3.87;;;;;;;15.72;91.92;98652.22;1706215;82;21047;-78
2022/09/27 11:52:18;;;;;;;6.67;4.03;;;;;;;16.13;91.15;98654.86;1717037;82;21075;-79
2022/09/27 11:55:23;;;;;;;4.87;3.40;;;;;;;16.46;90.71;98651.89;1706973;82;21055;-79
2022/09/27 11:58:01;;;;;;;4.33;3.58;;;;;;;16.76;89.89;98650.58;1713877;82;21015;-78
2022/09/27 12:01:04;;;;;;;5.33;3.37;;;;;;;16.72;88.27;98652.19;1724894;82;21136;-78
2022/09/27 12:03:45;;;;;;;4.10;3.17;;;;;;;16.77;87.89;98654.95;1706058;83;21095;-78
2022/09/27 12:06:23;;;;;;;5.28;3.60;;;;;;;16.81;87.51;98659.81;1711460;83;21042;-86
2022/09/27 12:08:58;;;;;;;4.97;3.25;;;;;;;16.93;87.06;98649.91;1697938;82;21016;-85
2022/09/27 12:11:51;;;;;;;3.62;3.00;;;;;;;17.02;86.67;98647.77;1713660;83;21004;-82
2022/09/27 12:14:45;;;;;;;6.87;3.10;;;;;;;16.90;85.85;98651.05;1700514;83;21759;-82
2022/09/27 12:17:29;;;;;;;4.85;3.52;;;;;;;17.09;86.43;98650.18;1704960;81;21000;-80